Time;durP1;ratioP1;P1;durP2;ratioP2;P2;SDS_P1;SDS_P2;PMS_P1;PMS_P2;Temp;Humidity;BMP_temperature;BMP_pressure;BME280_temperature;BME280_humidity;BME280_pressure;Samples;Min_cycle;Max_cycle;Signal;HPM_P1;HPM_P2
2023/01/15 00:00:50;;;;;;;;;;;;;;;;;;4936317;29;19942;-84
2023/01/15 00:03:16;;;;;;;;;;;;;;;;;;4936600;29;19966;-84
2023/01/15 00:05:41;;;;;;;;;;;;;;;;;;4936328;29;20322;-83
2023/01/15 00:08:06;;;;;;;;;;;;;;;;;;4919278;29;19971;-83
2023/01/15 00:10:32;;;;;;;;;;;;;;;;;;4936569;29;20400;-83
2023/01/15 00:12:57;;;;;;;;;;;;;;;;;;4936284;29;19926;-83
2023/01/15 00:15:23;;;;;;;;;;;;;;;;;;4919181;29;20405;-82
2023/01/15 00:17:48;;;;;;;;;;;;;;;;;;4919026;29;20021;-84
2023/01/15 00:20:13;;;;;;;;;;;;;;;;;;4937890;29;20285;-83
2023/01/15 00:22:39;;;;;;;;;;;;;;;;;;4922606;29;19923;-83
2023/01/15 00:27:49;;;;;;;;;;;;;;;;;;4939730;29;20137;-83
2023/01/15 00:30:15;;;;;;;;;;;;;;;;;;4922533;29;20021;-85
2023/01/15 00:32:41;;;;;;;;;;;;;;;;;;4931881;29;19926;-83
2023/01/15 00:35:10;;;;;;;;;;;;;;;;;;4939607;29;19919;-85
2023/01/15 00:37:35;;;;;;;;;;;;;;;;;;4922110;29;20383;-83
2023/01/15 00:40:01;;;;;;;;;;;;;;;;;;4939508;29;20030;-83
2023/01/15 00:42:26;;;;;;;;;;;;;;;;;;4939489;29;19928;-83
2023/01/15 00:44:51;;;;;;;;;;;;;;;;;;4939445;29;20291;-85
2023/01/15 00:47:17;;;;;;;;;;;;;;;;;;4939411;29;19918;-83
2023/01/15 00:49:42;;;;;;;;;;;;;;;;;;4939319;29;19958;-84
2023/01/15 00:52:08;;;;;;;;;;;;;;;;;;4939251;29;19974;-83
2023/01/15 00:54:34;;;;;;;;;;;;;;;;;;4939250;29;19930;-83
2023/01/15 00:56:59;;;;;;;;;;;;;;;;;;4939463;29;19918;-83
2023/01/15 00:59:25;;;;;;;;;;;;;;;;;;4922133;29;20318;-84
2023/01/15 01:01:50;;;;;;;;;;;;;;;;;;4939160;29;19919;-83
2023/01/15 01:04:15;;;;;;;;;;;;;;;;;;4939067;29;19925;-83
2023/01/15 01:06:41;;;;;;;;;;;;;;;;;;4939027;29;19973;-83
2023/01/15 01:09:06;;;;;;;;;;;;;;;;;;4938959;29;19919;-83
2023/01/15 01:11:33;;;;;;;;;;;;;;;;;;4938908;29;19922;-83
2023/01/15 01:14:00;;;;;;;;;;;;;;;;;;4921796;29;20354;-85
2023/01/15 01:16:25;;;;;;;;;;;;;;;;;;4921783;29;19919;-83
2023/01/15 01:18:51;;;;;;;;;;;;;;;;;;4921735;29;19922;-83
2023/01/15 01:21:16;;;;;;;;;;;;;;;;;;4938533;29;19971;-84
2023/01/15 01:23:42;;;;;;;;;;;;;;;;;;4938783;29;19919;-83
2023/01/15 01:26:08;;;;;;;;;;;;;;;;;;4938729;29;19961;-84
2023/01/15 01:28:34;;;;;;;;;;;;;;;;;;4921522;29;19919;-82
2023/01/15 01:30:59;;;;;;;;;;;;;;;;;;4938820;29;19919;-84
2023/01/15 01:33:24;;;;;;;;;;;;;;;;;;4938557;29;20447;-83
2023/01/15 01:35:50;;;;;;;;;;;;;;;;;;4921387;29;20363;-83
2023/01/15 01:38:16;;;;;;;;;;;;;;;;;;4938473;29;20076;-83
2023/01/15 01:40:41;;;;;;;;;;;;;;;;;;4938630;29;19966;-82
2023/01/15 01:43:33;;;;;;;;;;;;;;;;;;4938402;29;19919;-83
2023/01/15 01:45:58;;;;;;;;;;;;;;;;;;4935369;29;19980;-83
2023/01/15 01:48:27;;;;;;;;;;;;;;;;;;4938224;29;20291;-83
2023/01/15 01:50:55;;;;;;;;;;;;;;;;;;4921165;29;20490;-82
2023/01/15 01:53:21;;;;;;;;;;;;;;;;;;4938218;29;19919;-83
2023/01/15 01:55:48;;;;;;;;;;;;;;;;;;4938178;29;19915;-83
2023/01/15 01:58:13;;;;;;;;;;;;;;;;;;4938032;29;20434;-84
2023/01/15 02:00:41;;;;;;;;;;;;;;;;;;4921960;29;19918;-83
2023/01/15 02:03:08;;;;;;;;;;;;;;;;;;4940358;29;20394;-82
2023/01/15 02:05:36;;;;;;;;;;;;;;;;;;4930720;29;19973;-83
2023/01/15 02:08:01;;;;;;;;;;;;;;;;;;4946688;29;20333;-83
2023/01/15 02:10:27;;;;;;;;;;;;;;;;;;4940640;29;20013;-86
2023/01/15 02:13:12;;;;;;;;;;;;;;;;;;4924181;29;19952;-87
2023/01/15 02:15:42;;;;;;;;;;;;;;;;;;4921516;29;19926;-86
2023/01/15 02:18:22;;;;;;;;;;;;;;;;;;4938193;29;19919;-86
2023/01/15 02:21:17;;;;;;;;;;;;;;;;;;4937664;29;19947;-85
2023/01/15 02:24:01;;;;;;;;;;;;;;;;;;4863237;29;19930;-86
2023/01/15 02:26:35;;;;;;;;;;;;;;;;;;4863415;29;19926;-85
2023/01/15 02:29:01;;;;;;;;;;;;;;;;;;4879345;29;20281;-86
2023/01/15 02:31:35;;;;;;;;;;;;;;;;;;4878960;29;19948;-86
2023/01/15 02:34:19;;;;;;;;;;;;;;;;;;4863368;29;19920;-82
2023/01/15 02:36:51;;;;;;;;;;;;;;;;;;4878914;29;19920;-85
2023/01/15 02:39:17;;;;;;;;;;;;;;;;;;4879009;29;19950;-84
2023/01/15 02:41:45;;;;;;;;;;;;;;;;;;4878647;29;19920;-86
2023/01/15 02:44:11;;;;;;;;;;;;;;;;;;4878323;29;20328;-86
2023/01/15 02:46:38;;;;;;;;;;;;;;;;;;4879005;29;20372;-83
2023/01/15 02:49:06;;;;;;;;;;;;;;;;;;4878643;29;19930;-87
2023/01/15 02:51:35;;;;;;;;;;;;;;;;;;4878463;29;20423;-85
2023/01/15 02:54:03;;;;;;;;;;;;;;;;;;4878612;29;20486;-87
2023/01/15 02:56:31;;;;;;;;;;;;;;;;;;4878571;29;20298;-85
2023/01/15 02:59:00;;;;;;;;;;;;;;;;;;4864621;29;20360;-86
2023/01/15 03:01:27;;;;;;;;;;;;;;;;;;4919828;29;19926;-86
2023/01/15 03:04:12;;;;;;;;;;;;;;;;;;4919823;29;19938;-85
2023/01/15 03:06:43;;;;;;;;;;;;;;;;;;4919879;29;20020;-86
2023/01/15 03:09:08;;;;;;;;;;;;;;;;;;4936743;29;19926;-86
2023/01/15 03:11:37;;;;;;;;;;;;;;;;;;4936916;29;19923;-84
2023/01/15 03:14:02;;;;;;;;;;;;;;;;;;4919735;29;19919;-84
2023/01/15 03:16:34;;;;;;;;;;;;;;;;;;4936753;29;19926;-85
2023/01/15 03:19:18;;;;;;;;;;;;;;;;;;4936799;29;19957;-85
2023/01/15 03:21:43;;;;;;;;;;;;;;;;;;4919290;29;20294;-86
2023/01/15 03:24:09;;;;;;;;;;;;;;;;;;4919687;29;20020;-87
2023/01/15 03:26:35;;;;;;;;;;;;;;;;;;4936775;29;19931;-86
2023/01/15 03:29:02;;;;;;;;;;;;;;;;;;4919605;29;19918;-85
2023/01/15 03:31:28;;;;;;;;;;;;;;;;;;4936705;29;20382;-83
2023/01/15 03:33:53;;;;;;;;;;;;;;;;;;4936784;29;19924;-83
2023/01/15 03:36:18;;;;;;;;;;;;;;;;;;4919518;29;19919;-83
2023/01/15 03:38:46;;;;;;;;;;;;;;;;;;4936548;29;19919;-84
2023/01/15 03:41:14;;;;;;;;;;;;;;;;;;4936392;29;19919;-84
2023/01/15 03:43:53;;;;;;;;;;;;;;;;;;4936522;29;19919;-83
2023/01/15 03:46:19;;;;;;;;;;;;;;;;;;4919517;29;19919;-84
2023/01/15 03:48:55;;;;;;;;;;;;;;;;;;4936758;29;20002;-83
2023/01/15 03:51:23;;;;;;;;;;;;;;;;;;4919224;29;20097;-84
2023/01/15 03:53:59;;;;;;;;;;;;;;;;;;4936415;29;20385;-83
2023/01/15 03:56:34;;;;;;;;;;;;;;;;;;4940009;29;19918;-85
2023/01/15 03:59:11;;;;;;;;;;;;;;;;;;4940188;29;19919;-83
2023/01/15 04:01:38;;;;;;;;;;;;;;;;;;4923152;29;19919;-84
2023/01/15 04:04:04;;;;;;;;;;;;;;;;;;4940026;29;19923;-83
2023/01/15 04:06:31;;;;;;;;;;;;;;;;;;4940163;29;20021;-83
2023/01/15 04:08:58;;;;;;;;;;;;;;;;;;4922899;29;19919;-84
2023/01/15 04:11:24;;;;;;;;;;;;;;;;;;4940086;29;19962;-86
2023/01/15 04:13:50;;;;;;;;;;;;;;;;;;4922884;29;19926;-83
2023/01/15 04:16:22;;;;;;;;;;;;;;;;;;4939886;29;19923;-84
2023/01/15 04:18:48;;;;;;;;;;;;;;;;;;4922782;29;20294;-83
2023/01/15 04:21:13;;;;;;;;;;;;;;;;;;4939766;29;19923;-84
2023/01/15 04:23:39;;;;;;;;;;;;;;;;;;4939871;29;19919;-83
2023/01/15 04:26:06;;;;;;;;;;;;;;;;;;4939763;29;19915;-83
2023/01/15 04:28:32;;;;;;;;;;;;;;;;;;4939650;29;20373;-83
2023/01/15 04:30:58;;;;;;;;;;;;;;;;;;4939704;29;20018;-82
2023/01/15 04:33:24;;;;;;;;;;;;;;;;;;4939606;29;20343;-85
2023/01/15 04:35:49;;;;;;;;;;;;;;;;;;4922511;29;19919;-83
2023/01/15 04:38:16;;;;;;;;;;;;;;;;;;4939535;29;19918;-83
2023/01/15 04:46:10;;;;;;;;;;;;;;;;;;4939828;29;19943;-83
2023/01/15 04:48:37;;;;;;;;;;;;;;;;;;4922204;29;19922;-83
2023/01/15 04:51:03;;;;;;;;;;;;;;;;;;4939278;29;19919;-83
2023/01/15 04:53:28;;;;;;;;;;;;;;;;;;4939300;29;19966;-83
2023/01/15 04:55:58;;;;;;;;;;;;;;;;;;4939326;29;20362;-83
2023/01/15 04:58:24;;;;;;;;;;;;;;;;;;4922148;29;20290;-85
2023/01/15 05:00:49;;;;;;;;;;;;;;;;;;4939047;29;19919;-85
2023/01/15 05:03:14;;;;;;;;;;;;;;;;;;4939210;29;19919;-84
2023/01/15 05:05:40;;;;;;;;;;;;;;;;;;4938527;29;20327;-83
2023/01/15 05:08:05;;;;;;;;;;;;;;;;;;4939003;29;19915;-83
2023/01/15 05:10:31;;;;;;;;;;;;;;;;;;4939106;29;19919;-83
2023/01/15 05:12:56;;;;;;;;;;;;;;;;;;4938997;29;20282;-83
2023/01/15 05:15:22;;;;;;;;;;;;;;;;;;4921782;29;19919;-83
2023/01/15 05:17:47;;;;;;;;;;;;;;;;;;4938839;29;19942;-83
2023/01/15 05:20:14;;;;;;;;;;;;;;;;;;4938924;29;19925;-82
2023/01/15 05:22:39;;;;;;;;;;;;;;;;;;4921519;29;19969;-83
2023/01/15 05:25:05;;;;;;;;;;;;;;;;;;4922021;29;20391;-84
2023/01/15 05:27:30;;;;;;;;;;;;;;;;;;4938634;29;19919;-83
2023/01/15 05:29:56;;;;;;;;;;;;;;;;;;4938636;29;20367;-84
2023/01/15 05:32:21;;;;;;;;;;;;;;;;;;4938623;29;20379;-86
2023/01/15 05:34:46;;;;;;;;;;;;;;;;;;4921438;29;19974;-83
2023/01/15 05:37:12;;;;;;;;;;;;;;;;;;4938453;29;19966;-87
2023/01/15 05:39:37;;;;;;;;;;;;;;;;;;4921368;29;19919;-83
2023/01/15 05:42:03;;;;;;;;;;;;;;;;;;4938309;29;20373;-83
2023/01/15 05:44:29;;;;;;;;;;;;;;;;;;4938555;29;19925;-83
2023/01/15 05:46:56;;;;;;;;;;;;;;;;;;4938253;29;19923;-83
2023/01/15 05:49:23;;;;;;;;;;;;;;;;;;4938324;29;20350;-84
2023/01/15 05:51:49;;;;;;;;;;;;;;;;;;4938213;29;19918;-83
2023/01/15 05:54:19;;;;;;;;;;;;;;;;;;4938403;29;20322;-83
2023/01/15 05:56:44;;;;;;;;;;;;;;;;;;4930833;29;19958;-84
2023/01/15 05:59:10;;;;;;;;;;;;;;;;;;4938188;29;20409;-83
2023/01/15 06:01:36;;;;;;;;;;;;;;;;;;4937821;29;19970;-84
2023/01/15 06:04:01;;;;;;;;;;;;;;;;;;4938241;29;19981;-84
2023/01/15 06:06:27;;;;;;;;;;;;;;;;;;4938038;29;20339;-84
2023/01/15 06:08:53;;;;;;;;;;;;;;;;;;4920835;29;19996;-83
2023/01/15 06:11:18;;;;;;;;;;;;;;;;;;4938119;29;20286;-85
2023/01/15 06:13:44;;;;;;;;;;;;;;;;;;4920757;29;19918;-83
2023/01/15 06:16:09;;;;;;;;;;;;;;;;;;4937932;29;19919;-83
2023/01/15 06:18:35;;;;;;;;;;;;;;;;;;4936885;29;19927;-83
2023/01/15 06:21:04;;;;;;;;;;;;;;;;;;4937668;29;19929;-82
2023/01/15 06:23:29;;;;;;;;;;;;;;;;;;4937523;29;20389;-82
2023/01/15 06:25:58;;;;;;;;;;;;;;;;;;5104501;23;20018;-83
2023/01/15 06:28:23;;;;;;;;;;;;;;;;;;4917325;29;19919;-85
2023/01/15 06:30:49;;;;;;;;;;;;;;;;;;4917327;29;20345;-84
2023/01/15 06:33:14;;;;;;;;;;;;;;;;;;4917567;29;19959;-83
2023/01/15 06:35:39;;;;;;;;;;;;;;;;;;4918494;29;20014;-84
2023/01/15 06:38:05;;;;;;;;;;;;;;;;;;4918403;29;19968;-84
2023/01/15 06:40:30;;;;;;;;;;;;;;;;;;4918314;29;20259;-84
2023/01/15 06:48:27;;;;;;;;;;;;;;;;;;4918261;29;19967;-84
2023/01/15 06:50:53;;;;;;;;;;;;;;;;;;4918137;29;19915;-83
2023/01/15 06:53:19;;;;;;;;;;;;;;;;;;4918181;29;20013;-83
2023/01/15 06:55:45;;;;;;;;;;;;;;;;;;4916883;29;19922;-85
2023/01/15 06:58:10;;;;;;;;;;;;;;;;;;4918012;29;19920;-85
2023/01/15 07:00:36;;;;;;;;;;;;;;;;;;4916627;29;19926;-85
2023/01/15 07:03:02;;;;;;;;;;;;;;;;;;4916728;29;20291;-84
2023/01/15 07:05:28;;;;;;;;;;;;;;;;;;4917002;29;19919;-84
2023/01/15 07:07:53;;;;;;;;;;;;;;;;;;4916744;29;20396;-86
2023/01/15 07:10:19;;;;;;;;;;;;;;;;;;4918243;29;19923;-84
2023/01/15 07:12:44;;;;;;;;;;;;;;;;;;4917839;29;19919;-84
2023/01/15 07:15:10;;;;;;;;;;;;;;;;;;4917850;29;19942;-86
2023/01/15 07:17:35;;;;;;;;;;;;;;;;;;4916583;29;20280;-84
2023/01/15 07:20:01;;;;;;;;;;;;;;;;;;4918109;29;19927;-84
2023/01/15 07:22:26;;;;;;;;;;;;;;;;;;4916399;29;19958;-85
2023/01/15 07:24:52;;;;;;;;;;;;;;;;;;4917816;29;19923;-85
2023/01/15 07:27:17;;;;;;;;;;;;;;;;;;4916678;29;20363;-84
2023/01/15 07:29:42;;;;;;;;;;;;;;;;;;4917591;29;19926;-84
2023/01/15 07:32:09;;;;;;;;;;;;;;;;;;4917704;29;19919;-84
2023/01/15 07:34:34;;;;;;;;;;;;;;;;;;4917934;29;20449;-84
2023/01/15 07:36:59;;;;;;;;;;;;;;;;;;4917693;29;20022;-84
2023/01/15 07:39:25;;;;;;;;;;;;;;;;;;4916352;29;19926;-85
2023/01/15 07:50:04;;;;;;;;;;;;;;;;;;4918221;29;19922;-85
2023/01/15 07:52:30;;;;;;;;;;;;;;;;;;4918149;29;20015;-84
2023/01/15 07:54:55;;;;;;;;;;;;;;;;;;4916388;29;19923;-84
2023/01/15 07:57:21;;;;;;;;;;;;;;;;;;4916285;29;20048;-84
2023/01/15 07:59:47;;;;;;;;;;;;;;;;;;4916185;29;20277;-84
2023/01/15 08:02:13;;;;;;;;;;;;;;;;;;4916274;29;19919;-84
2023/01/15 08:04:39;;;;;;;;;;;;;;;;;;4918512;29;19926;-84
2023/01/15 08:07:04;;;;;;;;;;;;;;;;;;4917444;29;19961;-84
2023/01/15 08:09:30;;;;;;;;;;;;;;;;;;4916020;29;20285;-84
2023/01/15 08:17:25;;;;;;;;;;;;;;;;;;4917596;29;19968;-91
2023/01/15 08:19:51;;;;;;;;;;;;;;;;;;4917588;29;20307;-85
2023/01/15 08:22:16;;;;;;;;;;;;;;;;;;4917276;29;19926;-91
2023/01/15 08:24:42;;;;;;;;;;;;;;;;;;4917171;29;19923;-84
2023/01/15 08:27:08;;;;;;;;;;;;;;;;;;4916909;29;20289;-86
2023/01/15 08:29:33;;;;;;;;;;;;;;;;;;4918012;29;20290;-83
2023/01/15 08:31:58;;;;;;;;;;;;;;;;;;4918119;29;19926;-83
2023/01/15 08:34:24;;;;;;;;;;;;;;;;;;4923785;29;19920;-85
2023/01/15 08:36:55;;;;;;;;;;;;;;;;;;4929734;29;19934;-83
2023/01/15 08:39:21;;;;;;;;;;;;;;;;;;4921282;29;19950;-85
2023/01/15 08:41:47;;;;;;;;;;;;;;;;;;4919140;29;20077;-85
2023/01/15 08:44:12;;;;;;;;;;;;;;;;;;4920191;29;20086;-85
2023/01/15 08:46:38;;;;;;;;;;;;;;;;;;4920528;29;19922;-84
2023/01/15 08:49:03;;;;;;;;;;;;;;;;;;4919387;29;19919;-84
2023/01/15 08:51:28;;;;;;;;;;;;;;;;;;4919241;29;19977;-85
2023/01/15 08:53:54;;;;;;;;;;;;;;;;;;4920746;29;19923;-85
2023/01/15 08:56:19;;;;;;;;;;;;;;;;;;4920217;29;19930;-85
2023/01/15 08:58:46;;;;;;;;;;;;;;;;;;4919406;29;20010;-85
2023/01/15 09:01:14;;;;;;;;;;;;;;;;;;4920499;29;20395;-86
2023/01/15 09:03:41;;;;;;;;;;;;;;;;;;4920268;29;19923;-86
2023/01/15 09:06:06;;;;;;;;;;;;;;;;;;4920142;29;19919;-85
2023/01/15 09:08:32;;;;;;;;;;;;;;;;;;4918924;29;20359;-86
2023/01/15 09:10:58;;;;;;;;;;;;;;;;;;4920307;29;19926;-85
2023/01/15 09:13:24;;;;;;;;;;;;;;;;;;4920265;29;20430;-86
2023/01/15 09:15:49;;;;;;;;;;;;;;;;;;4920438;29;20010;-85
2023/01/15 09:18:18;;;;;;;;;;;;;;;;;;4919952;29;19919;-87
2023/01/15 09:20:44;;;;;;;;;;;;;;;;;;4919851;29;20394;-85
2023/01/15 09:23:09;;;;;;;;;;;;;;;;;;4919856;29;19919;-88
2023/01/15 09:25:34;;;;;;;;;;;;;;;;;;4919518;29;19934;-86
2023/01/15 09:28:00;;;;;;;;;;;;;;;;;;4919755;29;20393;-85
2023/01/15 09:30:25;;;;;;;;;;;;;;;;;;4919641;29;19935;-85
2023/01/15 09:32:51;;;;;;;;;;;;;;;;;;4918443;29;20359;-86
2023/01/15 09:35:16;;;;;;;;;;;;;;;;;;4919578;29;19920;-86
2023/01/15 09:37:42;;;;;;;;;;;;;;;;;;4918413;29;19967;-87
2023/01/15 09:40:08;;;;;;;;;;;;;;;;;;4919713;29;20026;-86
2023/01/15 09:42:50;;;;;;;;;;;;;;;;;;4919505;29;19983;-86
2023/01/15 09:45:18;;;;;;;;;;;;;;;;;;4918267;29;20034;-86
2023/01/15 09:47:50;;;;;;;;;;;;;;;;;;4918846;29;20332;-87
2023/01/15 09:50:34;;;;;;;;;;;;;;;;;;4919383;29;19919;-85
2023/01/15 09:53:18;;;;;;;;;;;;;;;;;;4918382;29;20010;-86
2023/01/15 09:55:49;;;;;;;;;;;;;;;;;;4925494;29;19919;-87
2023/01/15 09:58:17;;;;;;;;;;;;;;;;;;4937025;29;19923;-85
2023/01/15 10:00:47;;;;;;;;;;;;;;;;;;4936903;29;19923;-86
2023/01/15 10:03:22;;;;;;;;;;;;;;;;;;4938314;29;19926;-86
2023/01/15 10:06:06;;;;;;;;;;;;;;;;;;4921145;29;20279;-85
2023/01/15 10:08:38;;;;;;;;;;;;;;;;;;4938422;29;20281;-87
2023/01/15 10:11:05;;;;;;;;;;;;;;;;;;4920780;29;19971;-87
2023/01/15 10:13:36;;;;;;;;;;;;;;;;;;4938605;29;19986;-85
2023/01/15 10:16:01;;;;;;;;;;;;;;;;;;4938501;29;20013;-86
2023/01/15 10:18:27;;;;;;;;;;;;;;;;;;4920885;29;20368;-86
2023/01/15 10:20:53;;;;;;;;;;;;;;;;;;4920663;29;19918;-86
2023/01/15 10:23:18;;;;;;;;;;;;;;;;;;4920932;29;20006;-88
2023/01/15 10:25:48;;;;;;;;;;;;;;;;;;4921092;29;19930;-87
2023/01/15 10:28:25;;;;;;;;;;;;;;;;;;4938530;29;19919;-87
2023/01/15 10:30:55;;;;;;;;;;;;;;;;;;4938007;29;19919;-86
2023/01/15 10:33:28;;;;;;;;;;;;;;;;;;4920530;29;19929;-87
2023/01/15 10:35:54;;;;;;;;;;;;;;;;;;4937594;29;19919;-86
2023/01/15 10:38:25;;;;;;;;;;;;;;;;;;4920446;29;19930;-88
2023/01/15 10:40:58;;;;;;;;;;;;;;;;;;4920161;29;19923;-87
2023/01/15 10:43:42;;;;;;;;;;;;;;;;;;4937708;29;19922;-85
2023/01/15 10:46:15;;;;;;;;;;;;;;;;;;4937362;29;19997;-86
2023/01/15 10:48:55;;;;;;;;;;;;;;;;;;4937271;29;20009;-86
2023/01/15 10:51:21;;;;;;;;;;;;;;;;;;4937214;29;19925;-86
2023/01/15 10:54:12;;;;;;;;;;;;;;;;;;4937364;29;19915;-85
2023/01/15 10:56:44;;;;;;;;;;;;;;;;;;4917204;29;19919;-85
2023/01/15 10:59:16;;;;;;;;;;;;;;;;;;4937117;29;19922;-86
2023/01/15 11:01:41;;;;;;;;;;;;;;;;;;4936970;29;19922;-86
2023/01/15 11:04:08;;;;;;;;;;;;;;;;;;4936632;29;19919;-86
2023/01/15 11:06:34;;;;;;;;;;;;;;;;;;4919949;29;19918;-85
2023/01/15 11:09:00;;;;;;;;;;;;;;;;;;4919803;29;19945;-87
2023/01/15 11:19:36;;;;;;;;;;;;;;;;;;4936847;29;19918;-85
2023/01/15 11:22:12;;;;;;;;;;;;;;;;;;4936658;29;19926;-85
2023/01/15 11:24:44;;;;;;;;;;;;;;;;;;4919481;29;19953;-85
2023/01/15 11:27:13;;;;;;;;;;;;;;;;;;4936626;29;19978;-86
2023/01/15 11:29:39;;;;;;;;;;;;;;;;;;4936596;29;19982;-86
2023/01/15 11:32:18;;;;;;;;;;;;;;;;;;4936740;29;20370;-85
2023/01/15 11:34:51;;;;;;;;;;;;;;;;;;4936842;29;20014;-86
2023/01/15 11:37:16;;;;;;;;;;;;;;;;;;4936876;29;20374;-85
2023/01/15 11:39:50;;;;;;;;;;;;;;;;;;4936841;29;19967;-86
2023/01/15 11:51:15;;;;;;;;;;;;;;;;;;4936993;29;19926;-85
2023/01/15 11:53:45;;;;;;;;;;;;;;;;;;4936613;29;19982;-88
2023/01/15 11:56:14;;;;;;;;;;;;;;;;;;4936556;29;20434;-88
2023/01/15 11:58:43;;;;;;;;;;;;;;;;;;4936247;29;19925;-86
2023/01/15 12:01:10;;;;;;;;;;;;;;;;;;4919082;29;20369;-86
2023/01/15 12:03:38;;;;;;;;;;;;;;;;;;4936504;29;19923;-88
2023/01/15 12:06:06;;;;;;;;;;;;;;;;;;4936448;29;20251;-87
2023/01/15 12:08:54;;;;;;;;;;;;;;;;;;4927460;29;20294;-86
2023/01/15 12:11:38;;;;;;;;;;;;;;;;;;4938435;29;19937;-87
2023/01/15 12:14:22;;;;;;;;;;;;;;;;;;4955865;29;19922;-87
2023/01/15 12:16:50;;;;;;;;;;;;;;;;;;4955211;29;19923;-86
2023/01/15 12:19:23;;;;;;;;;;;;;;;;;;4959252;29;20374;-85
2023/01/15 12:21:55;;;;;;;;;;;;;;;;;;4941983;29;19918;-87
2023/01/15 12:24:36;;;;;;;;;;;;;;;;;;4958995;29;19940;-86
2023/01/15 12:27:20;;;;;;;;;;;;;;;;;;4959182;29;19933;-87
2023/01/15 12:29:49;;;;;;;;;;;;;;;;;;4959167;29;19926;-86
2023/01/15 12:32:21;;;;;;;;;;;;;;;;;;4941913;29;20277;-86
2023/01/15 12:35:21;;;;;;;;;;;;;;;;;;4941842;29;19918;-85
2023/01/15 12:37:51;;;;;;;;;;;;;;;;;;4899901;29;20021;-86
2023/01/15 12:40:19;;;;;;;;;;;;;;;;;;4888562;29;19919;-86
2023/01/15 12:45:33;;;;;;;;;;;;;;;;;;4913409;29;20037;-85
2023/01/15 12:48:11;;;;;;;;;;;;;;;;;;4915471;29;19919;-87
2023/01/15 12:50:36;;;;;;;;;;;;;;;;;;4906955;29;19919;-87
2023/01/15 12:53:08;;;;;;;;;;;;;;;;;;4901097;29;19948;-87
2023/01/15 12:55:36;;;;;;;;;;;;;;;;;;4899908;29;19943;-87
2023/01/15 12:58:04;;;;;;;;;;;;;;;;;;4883967;29;19920;-86
2023/01/15 13:00:38;;;;;;;;;;;;;;;;;;4899495;29;19920;-86
2023/01/15 13:03:09;;;;;;;;;;;;;;;;;;4883917;29;19919;-86
2023/01/15 13:05:52;;;;;;;;;;;;;;;;;;4883888;29;19923;-87
2023/01/15 13:08:26;;;;;;;;;;;;;;;;;;4899299;29;19925;-88
2023/01/15 13:10:52;;;;;;;;;;;;;;;;;;4907637;29;19919;-87
2023/01/15 13:13:20;;;;;;;;;;;;;;;;;;4958864;29;19925;-86
2023/01/15 13:15:53;;;;;;;;;;;;;;;;;;4958500;29;19966;-87
2023/01/15 13:18:27;;;;;;;;;;;;;;;;;;4940996;29;19919;-87
2023/01/15 13:20:54;;;;;;;;;;;;;;;;;;4958092;29;20289;-87
2023/01/15 13:23:38;;;;;;;;;;;;;;;;;;4940762;28;20382;-87
2023/01/15 13:26:04;;;;;;;;;;;;;;;;;;4957812;28;19922;-86
2023/01/15 13:28:33;;;;;;;;;;;;;;;;;;4957979;29;20366;-86
2023/01/15 13:31:10;;;;;;;;;;;;;;;;;;4941481;29;20426;-85
2023/01/15 13:33:41;;;;;;;;;;;;;;;;;;4958285;29;19989;-86
2023/01/15 13:36:10;;;;;;;;;;;;;;;;;;4957963;29;19926;-86
2023/01/15 13:38:37;;;;;;;;;;;;;;;;;;4957762;29;19977;-86
2023/01/15 13:41:05;;;;;;;;;;;;;;;;;;4940411;29;19918;-86
2023/01/15 13:43:33;;;;;;;;;;;;;;;;;;4957948;29;19918;-87
2023/01/15 13:45:59;;;;;;;;;;;;;;;;;;4940468;29;19918;-86
2023/01/15 13:48:24;;;;;;;;;;;;;;;;;;4940434;29;20275;-85
2023/01/15 13:50:51;;;;;;;;;;;;;;;;;;4957978;29;19930;-85
2023/01/15 13:53:49;;;;;;;;;;;;;;;;;;4957645;29;19919;-86
2023/01/15 13:56:24;;;;;;;;;;;;;;;;;;4908970;29;20009;-86
2023/01/15 13:58:56;;;;;;;;;;;;;;;;;;4940268;29;19929;-86
2023/01/15 14:01:23;;;;;;;;;;;;;;;;;;4940146;29;19918;-86
2023/01/15 14:03:54;;;;;;;;;;;;;;;;;;4957408;29;19977;-86
2023/01/15 14:06:19;;;;;;;;;;;;;;;;;;4940068;29;19930;-85
2023/01/15 14:08:45;;;;;;;;;;;;;;;;;;4957313;29;19923;-86
2023/01/15 14:11:29;;;;;;;;;;;;;;;;;;4957164;29;20422;-85
2023/01/15 14:14:00;;;;;;;;;;;;;;;;;;4939920;29;20457;-86
2023/01/15 14:16:36;;;;;;;;;;;;;;;;;;4939951;29;19919;-86
2023/01/15 14:19:10;;;;;;;;;;;;;;;;;;4939934;29;20286;-86
2023/01/15 14:21:36;;;;;;;;;;;;;;;;;;4939737;29;19969;-87
2023/01/15 14:24:31;;;;;;;;;;;;;;;;;;4939894;29;19957;-88
2023/01/15 14:27:03;;;;;;;;;;;;;;;;;;4957643;29;19930;-89
2023/01/15 14:29:52;;;;;;;;;;;;;;;;;;4939903;29;20385;-88
2023/01/15 14:32:40;;;;;;;;;;;;;;;;;;4939771;29;19925;-88
2023/01/15 14:35:10;;;;;;;;;;;;;;;;;;4956951;29;20259;-89
2023/01/15 14:37:44;;;;;;;;;;;;;;;;;;4956943;28;20390;-88
2023/01/15 14:40:17;;;;;;;;;;;;;;;;;;4956255;29;19925;-87
2023/01/15 14:43:00;;;;;;;;;;;;;;;;;;4939350;29;19930;-87
2023/01/15 14:45:36;;;;;;;;;;;;;;;;;;4939315;29;19922;-87
2023/01/15 14:48:15;;;;;;;;;;;;;;;;;;4956628;29;20009;-88
2023/01/15 14:50:42;;;;;;;;;;;;;;;;;;4939108;29;20331;-87
2023/01/15 14:53:14;;;;;;;;;;;;;;;;;;4956846;29;19918;-88
2023/01/15 14:55:47;;;;;;;;;;;;;;;;;;4956669;29;19969;-87
2023/01/15 14:58:35;;;;;;;;;;;;;;;;;;4956970;29;19919;-87
2023/01/15 15:01:03;;;;;;;;;;;;;;;;;;4911040;29;19926;-89
2023/01/15 15:03:37;;;;;;;;;;;;;;;;;;4956631;29;19923;-88
2023/01/15 15:06:03;;;;;;;;;;;;;;;;;;4939130;29;20302;-88
2023/01/15 15:08:30;;;;;;;;;;;;;;;;;;4956297;29;19942;-87
2023/01/15 15:10:57;;;;;;;;;;;;;;;;;;4939082;29;20378;-87
2023/01/15 15:13:26;;;;;;;;;;;;;;;;;;4938949;29;19919;-87
2023/01/15 15:16:11;;;;;;;;;;;;;;;;;;4956239;29;19914;-87
2023/01/15 15:18:43;;;;;;;;;;;;;;;;;;4938953;29;19918;-87
2023/01/15 15:21:26;;;;;;;;;;;;;;;;;;4938986;29;19918;-88
2023/01/15 15:23:57;;;;;;;;;;;;;;;;;;4938891;29;20290;-88
2023/01/15 15:26:33;;;;;;;;;;;;;;;;;;4938487;29;20022;-87
2023/01/15 15:29:03;;;;;;;;;;;;;;;;;;4939051;29;19918;-85
2023/01/15 15:31:31;;;;;;;;;;;;;;;;;;4956097;29;19915;-87
2023/01/15 15:33:57;;;;;;;;;;;;;;;;;;4938880;29;20433;-87
2023/01/15 15:36:34;;;;;;;;;;;;;;;;;;4938834;29;19950;-87
2023/01/15 15:39:03;;;;;;;;;;;;;;;;;;4938870;29;19918;-87
2023/01/15 15:50:02;;;;;;;;;;;;;;;;;;4958076;28;20317;-86
2023/01/15 15:52:28;;;;;;;;;;;;;;;;;;4942460;29;19915;-88
2023/01/15 15:54:58;;;;;;;;;;;;;;;;;;4942542;29;19919;-86
2023/01/15 15:57:24;;;;;;;;;;;;;;;;;;4960215;29;20278;-87
2023/01/15 15:59:51;;;;;;;;;;;;;;;;;;4959914;29;19923;-87
2023/01/15 16:02:19;;;;;;;;;;;;;;;;;;4943097;29;19919;-87
2023/01/15 16:04:49;;;;;;;;;;;;;;;;;;4960149;29;19925;-88
2023/01/15 16:07:20;;;;;;;;;;;;;;;;;;4942388;29;19926;-87
2023/01/15 16:09:48;;;;;;;;;;;;;;;;;;4942399;29;19918;-87
2023/01/15 16:12:14;;;;;;;;;;;;;;;;;;4960002;29;19918;-85
2023/01/15 16:14:40;;;;;;;;;;;;;;;;;;4942179;29;19918;-89
2023/01/15 16:17:05;;;;;;;;;;;;;;;;;;4942347;29;20285;-87
2023/01/15 16:19:31;;;;;;;;;;;;;;;;;;4959138;29;20275;-87
2023/01/15 16:21:56;;;;;;;;;;;;;;;;;;4958938;29;20285;-85
2023/01/15 16:24:30;;;;;;;;;;;;;;;;;;4959219;29;19918;-88
2023/01/15 16:26:58;;;;;;;;;;;;;;;;;;4959773;29;19918;-85
2023/01/15 16:29:26;;;;;;;;;;;;;;;;;;4941969;29;19918;-86
2023/01/15 16:31:54;;;;;;;;;;;;;;;;;;4941938;29;19919;-88
2023/01/15 16:34:24;;;;;;;;;;;;;;;;;;4947281;29;19983;-86
2023/01/15 16:36:50;;;;;;;;;;;;;;;;;;4918215;29;20013;-91
2023/01/15 16:39:27;;;;;;;;;;;;;;;;;;4925271;29;19972;-88
2023/01/15 16:41:54;;;;;;;;;;;;;;;;;;4958213;29;19922;-83
2023/01/15 16:44:38;;;;;;;;;;;;;;;;;;4942638;29;19950;-87
2023/01/15 16:47:04;;;;;;;;;;;;;;;;;;4930000;29;19977;-88
2023/01/15 16:49:31;;;;;;;;;;;;;;;;;;4930704;29;20303;-87
2023/01/15 16:51:57;;;;;;;;;;;;;;;;;;4942621;29;19923;-89
2023/01/15 16:54:29;;;;;;;;;;;;;;;;;;4960715;29;19918;-88
2023/01/15 16:57:22;;;;;;;;;;;;;;;;;;4949743;29;19941;-84
2023/01/15 16:59:55;;;;;;;;;;;;;;;;;;4955207;29;19925;-87
2023/01/15 17:02:21;;;;;;;;;;;;;;;;;;4953699;29;20020;-89
2023/01/15 17:04:46;;;;;;;;;;;;;;;;;;4967345;29;19919;-88
2023/01/15 17:07:12;;;;;;;;;;;;;;;;;;4959341;29;19922;-85
2023/01/15 17:09:48;;;;;;;;;;;;;;;;;;4941820;29;19957;-87
2023/01/15 17:12:25;;;;;;;;;;;;;;;;;;4941327;29;19973;-89
2023/01/15 17:14:54;;;;;;;;;;;;;;;;;;4958366;29;19929;-88
2023/01/15 17:17:20;;;;;;;;;;;;;;;;;;4958201;29;19938;-88
2023/01/15 17:19:46;;;;;;;;;;;;;;;;;;4958437;29;19922;-90
2023/01/15 17:22:20;;;;;;;;;;;;;;;;;;4958107;29;19956;-88
2023/01/15 17:24:50;;;;;;;;;;;;;;;;;;4941263;29;20823;-89
2023/01/15 17:27:15;;;;;;;;;;;;;;;;;;4958154;29;19922;-88
2023/01/15 17:29:40;;;;;;;;;;;;;;;;;;4958160;29;20027;-87
2023/01/15 17:32:11;;;;;;;;;;;;;;;;;;4957820;29;19925;-88
2023/01/15 17:34:42;;;;;;;;;;;;;;;;;;4958526;29;20054;-84
2023/01/15 17:37:18;;;;;;;;;;;;;;;;;;4934089;29;19931;-85
2023/01/15 17:39:43;;;;;;;;;;;;;;;;;;4925295;29;19922;-88
2023/01/15 17:42:16;;;;;;;;;;;;;;;;;;4940832;29;19939;-89
2023/01/15 17:44:41;;;;;;;;;;;;;;;;;;4940199;29;20293;-87
2023/01/15 17:47:07;;;;;;;;;;;;;;;;;;4940112;29;19931;-88
2023/01/15 17:49:33;;;;;;;;;;;;;;;;;;4940255;29;20378;-87
2023/01/15 17:51:59;;;;;;;;;;;;;;;;;;4940213;29;19923;-86
2023/01/15 18:05:27;;;;;;;;;;;;;;;;;;4957370;29;19925;-88